Time;durP1;ratioP1;P1;durP2;ratioP2;P2;SDS_P1;SDS_P2;PMS_P1;PMS_P2;Temp;Humidity;BMP_temperature;BMP_pressure;BME280_temperature;BME280_humidity;BME280_pressure;Samples;Min_cycle;Max_cycle;Signal;HPM_P1;HPM_P2
2023/01/08 00:01:05;;;;;;;4.28;2.42;;;9.80;99.90;;;;;;5071737;28;20041;-70
2023/01/08 00:03:31;;;;;;;4.30;2.30;;;9.80;99.90;;;;;;5071707;28;20056;-70
2023/01/08 00:06:03;;;;;;;4.32;2.75;;;9.80;99.90;;;;;;5071772;28;20044;-70
2023/01/08 00:08:30;;;;;;;3.13;2.20;;;9.80;99.90;;;;;;5071703;28;20052;-70
2023/01/08 00:10:55;;;;;;;3.53;2.20;;;9.80;99.90;;;;;;5071914;28;20040;-70
2023/01/08 00:13:21;;;;;;;5.13;2.65;;;9.80;99.90;;;;;;5071649;28;20568;-70
2023/01/08 00:15:46;;;;;;;4.57;2.28;;;9.70;99.90;;;;;;5072849;28;20049;-70
2023/01/08 00:18:12;;;;;;;3.92;2.60;;;9.80;99.90;;;;;;5071552;28;20044;-70
2023/01/08 00:20:41;;;;;;;3.90;2.53;;;9.80;99.90;;;;;;5072742;28;20041;-70
2023/01/08 00:23:10;;;;;;;3.95;2.28;;;9.80;99.90;;;;;;5077961;28;20059;-70
2023/01/08 00:25:36;;;;;;;7.47;2.55;;;9.90;99.90;;;;;;5075450;28;20421;-70
2023/01/08 00:28:01;;;;;;;3.92;2.40;;;9.80;99.90;;;;;;5076126;28;20048;-70
2023/01/08 00:30:27;;;;;;;5.15;2.50;;;9.80;99.90;;;;;;5075497;28;20409;-70
2023/01/08 00:32:53;;;;;;;6.70;2.67;;;9.80;99.90;;;;;;5075386;28;20116;-70
2023/01/08 00:35:18;;;;;;;4.45;2.50;;;9.80;99.90;;;;;;5075366;28;20131;-70
2023/01/08 00:37:44;;;;;;;5.30;2.60;;;9.70;99.90;;;;;;5075222;28;20052;-70
2023/01/08 00:40:09;;;;;;;4.00;2.65;;;9.70;99.90;;;;;;5075230;28;20051;-70
2023/01/08 00:42:35;;;;;;;4.28;2.92;;;9.70;99.90;;;;;;5075202;28;20123;-70
2023/01/08 00:45:00;;;;;;;4.75;2.97;;;9.60;99.90;;;;;;5075321;28;20041;-70
2023/01/08 00:47:26;;;;;;;7.20;3.20;;;9.60;99.90;;;;;;5075298;28;20494;-70
2023/01/08 00:49:52;;;;;;;4.85;3.10;;;9.60;99.90;;;;;;5076155;28;20409;-70
2023/01/08 00:52:17;;;;;;;8.35;3.47;;;9.50;99.90;;;;;;5075022;28;20047;-70
2023/01/08 00:54:43;;;;;;;4.07;2.97;;;9.50;99.90;;;;;;5074960;28;20064;-70
2023/01/08 00:57:08;;;;;;;6.05;3.17;;;9.50;99.90;;;;;;5074884;28;20082;-70
2023/01/08 00:59:35;;;;;;;5.68;3.47;;;9.50;99.90;;;;;;5074886;28;20497;-70
2023/01/08 01:02:00;;;;;;;6.85;3.47;;;9.50;99.90;;;;;;5074823;28;20124;-70
2023/01/08 01:04:26;;;;;;;5.13;2.58;;;9.50;99.90;;;;;;5074779;28;20113;-70
2023/01/08 01:06:52;;;;;;;6.03;2.63;;;9.50;99.90;;;;;;5074632;28;20047;-70
2023/01/08 01:09:17;;;;;;;4.45;2.65;;;9.60;99.90;;;;;;5074714;28;20452;-70
2023/01/08 01:11:43;;;;;;;5.20;2.50;;;9.60;99.90;;;;;;5074682;28;20120;-70
2023/01/08 01:14:08;;;;;;;4.53;2.22;;;9.60;99.90;;;;;;5074884;28;20047;-70
2023/01/08 01:16:35;;;;;;;4.90;2.50;;;9.60;99.90;;;;;;5074756;28;20048;-70
2023/01/08 01:19:01;;;;;;;7.00;2.40;;;9.60;99.90;;;;;;5074692;28;20049;-70
2023/01/08 01:21:30;;;;;;;4.95;2.38;;;9.70;99.90;;;;;;5074450;28;20413;-70
2023/01/08 01:24:06;;;;;;;4.88;2.10;;;9.70;99.90;;;;;;5074675;28;20497;-70
2023/01/08 01:26:32;;;;;;;4.68;1.70;;;9.70;99.90;;;;;;5074381;28;20037;-70
2023/01/08 01:28:59;;;;;;;4.70;1.80;;;9.60;99.90;;;;;;5074284;28;20499;-70
2023/01/08 01:31:27;;;;;;;4.18;1.38;;;9.60;99.90;;;;;;5074603;28;20063;-70
2023/01/08 01:33:53;;;;;;;4.65;1.67;;;9.60;99.90;;;;;;5073908;28;20041;-70
2023/01/08 01:36:22;;;;;;;4.90;1.77;;;9.60;99.90;;;;;;5074248;28;20529;-70
2023/01/08 01:38:50;;;;;;;6.05;1.40;;;9.50;99.90;;;;;;5074117;28;20045;-70
2023/01/08 01:41:29;;;;;;;5.18;1.40;;;9.50;99.90;;;;;;5074168;28;20052;-70
2023/01/08 01:43:57;;;;;;;4.70;1.20;;;9.50;99.90;;;;;;5074416;28;20040;-70
2023/01/08 01:46:26;;;;;;;6.60;1.50;;;9.40;99.90;;;;;;5073945;28;20127;-70
2023/01/08 01:48:57;;;;;;;6.30;1.55;;;9.40;99.90;;;;;;5073794;28;20082;-70
2023/01/08 01:51:28;;;;;;;6.63;1.33;;;9.30;99.90;;;;;;5073974;28;20036;-70
2023/01/08 01:53:53;;;;;;;7.93;1.20;;;9.20;99.90;;;;;;5073950;28;20032;-70
2023/01/08 01:56:19;;;;;;;7.15;1.60;;;9.20;99.90;;;;;;5073838;28;20048;-70
2023/01/08 01:58:45;;;;;;;5.45;1.05;;;9.20;99.90;;;;;;5073721;28;20115;-70
2023/01/08 02:01:11;;;;;;;8.05;1.50;;;9.10;99.90;;;;;;5073705;28;20040;-70
2023/01/08 02:03:39;;;;;;;7.45;1.20;;;9.10;99.90;;;;;;5073706;28;20047;-70
2023/01/08 02:06:30;;;;;;;7.15;1.25;;;9.00;99.90;;;;;;5073624;28;20048;-70
2023/01/08 02:09:03;;;;;;;8.07;1.60;;;9.00;99.90;;;;;;5075399;28;20037;-70
2023/01/08 02:11:33;;;;;;;11.48;1.70;;;8.90;99.90;;;;;;5075113;28;20037;-70
2023/01/08 02:14:12;;;;;;;9.00;1.88;;;8.80;99.90;;;;;;5073546;28;20040;-70
2023/01/08 02:16:56;;;;;;;8.18;1.77;;;8.80;99.90;;;;;;5073469;28;20413;-70
2023/01/08 02:19:40;;;;;;;;;;;8.80;99.90;;;;;;5073861;28;20070;-70
2023/01/08 02:22:13;;;;;;;10.85;1.52;;;8.70;99.90;;;;;;5074603;28;19916;-70
2023/01/08 02:24:57;;;;;;;11.60;2.40;;;8.70;99.90;;;;;;5056722;28;20036;-70
2023/01/08 02:27:26;;;;;;;10.43;1.70;;;8.70;99.90;;;;;;5073440;28;20052;-70
2023/01/08 02:29:54;;;;;;;16.30;2.42;;;8.70;99.90;;;;;;5073418;28;20119;-70
2023/01/08 02:32:41;;;;;;;7.80;1.58;;;8.70;99.90;;;;;;5073096;28;20079;-70
2023/01/08 02:35:07;;;;;;;11.02;2.47;;;8.70;99.90;;;;;;5072926;28;20048;-70
2023/01/08 02:37:34;;;;;;;12.35;2.22;;;8.70;99.90;;;;;;5072923;28;20564;-70
2023/01/08 02:39:59;;;;;;;10.63;2.30;;;8.60;99.90;;;;;;5073168;28;20105;-70
2023/01/08 02:42:46;;;;;;;11.57;2.47;;;8.60;99.90;;;;;;5073184;28;20509;-70
2023/01/08 02:45:35;;;;;;;11.85;2.03;;;8.60;99.90;;;;;;5071827;28;20555;-70
2023/01/08 02:48:11;;;;;;;9.90;1.98;;;8.60;99.90;;;;;;5072982;28;20044;-70
2023/01/08 02:50:45;;;;;;;16.42;2.10;;;8.60;99.90;;;;;;5072811;28;20037;-70
2023/01/08 02:53:31;;;;;;;9.40;1.67;;;8.60;99.90;;;;;;5072691;28;20070;-70
2023/01/08 02:56:01;;;;;;;16.52;2.65;;;8.60;99.90;;;;;;5072943;28;20123;-70
2023/01/08 02:58:30;;;;;;;9.52;1.75;;;8.60;99.90;;;;;;5072615;28;20059;-70
2023/01/08 03:00:56;;;;;;;16.85;2.05;;;8.60;99.90;;;;;;5072582;28;20501;-70
2023/01/08 03:03:26;;;;;;;9.98;2.33;;;8.60;99.90;;;;;;5072786;28;20045;-70
2023/01/08 03:05:57;;;;;;;12.48;1.92;;;8.50;99.90;;;;;;5072375;28;20421;-70
2023/01/08 03:08:24;;;;;;;7.80;1.50;;;8.50;99.90;;;;;;5072373;28;20039;-70
2023/01/08 03:11:05;;;;;;;11.55;2.15;;;8.60;99.90;;;;;;5072384;28;20072;-70
2023/01/08 03:13:38;;;;;;;11.68;2.17;;;8.60;99.90;;;;;;5072321;28;20036;-70
2023/01/08 03:16:07;;;;;;;;;;;8.50;99.90;;;;;;5073016;28;20517;-70
2023/01/08 03:18:38;;;;;;;8.65;1.80;;;8.50;99.90;;;;;;5072223;28;19924;-70
2023/01/08 03:21:05;;;;;;;10.23;2.35;;;8.50;99.90;;;;;;5072289;28;20044;-70
2023/01/08 03:23:33;;;;;;;9.02;1.95;;;8.50;99.90;;;;;;5073300;28;20080;-70
2023/01/08 03:26:02;;;;;;;12.05;2.05;;;8.50;99.90;;;;;;5072077;28;20040;-70
2023/01/08 03:28:33;;;;;;;10.45;2.28;;;8.40;99.90;;;;;;5072091;28;20067;-70
2023/01/08 03:31:01;;;;;;;10.52;2.50;;;8.40;99.90;;;;;;5072422;28;20045;-70
2023/01/08 03:33:29;;;;;;;8.38;1.73;;;8.40;99.90;;;;;;5072323;28;20036;-70
2023/01/08 03:35:59;;;;;;;11.05;3.08;;;8.40;99.90;;;;;;5072312;28;20040;-70
2023/01/08 03:38:43;;;;;;;6.20;1.75;;;8.40;99.90;;;;;;5071945;28;20124;-70
2023/01/08 03:41:12;;;;;;;8.98;2.42;;;8.50;99.90;;;;;;5073865;28;20051;-70
2023/01/08 03:43:38;;;;;;;7.28;2.20;;;8.50;99.90;;;;;;5071965;28;20116;-70
2023/01/08 03:46:10;;;;;;;8.35;2.75;;;8.50;99.90;;;;;;5071853;28;20119;-70
2023/01/08 03:48:37;;;;;;;8.17;2.20;;;8.50;99.90;;;;;;5072019;28;20056;-70
2023/01/08 03:51:06;;;;;;;6.90;2.13;;;8.50;99.90;;;;;;5071874;28;20052;-70
2023/01/08 03:53:32;;;;;;;7.43;2.08;;;8.50;99.90;;;;;;5071844;28;20037;-70
2023/01/08 03:55:57;;;;;;;6.50;2.72;;;8.60;99.90;;;;;;5071519;28;20055;-70
2023/01/08 03:58:23;;;;;;;7.53;3.05;;;8.50;99.90;;;;;;5071693;28;20036;-70
2023/01/08 04:00:48;;;;;;;5.90;2.75;;;8.60;99.90;;;;;;5072036;28;20123;-70
2023/01/08 04:03:14;;;;;;;8.85;2.72;;;8.60;99.90;;;;;;5071743;28;20516;-70
2023/01/08 04:05:39;;;;;;;7.18;2.80;;;8.60;99.90;;;;;;5071659;28;20048;-70
2023/01/08 04:08:05;;;;;;;6.43;2.63;;;8.70;99.90;;;;;;5071671;28;20075;-70
2023/01/08 04:10:31;;;;;;;7.43;2.92;;;8.70;99.90;;;;;;5071716;28;20158;-70
2023/01/08 04:12:56;;;;;;;8.50;2.72;;;8.70;99.90;;;;;;5071920;28;20082;-70
2023/01/08 04:15:22;;;;;;;6.97;2.80;;;8.80;99.90;;;;;;5071639;28;20580;-70
2023/01/08 04:17:47;;;;;;;5.38;2.85;;;8.80;99.90;;;;;;5071597;28;20102;-70
2023/01/08 04:20:13;;;;;;;6.88;2.35;;;8.80;99.90;;;;;;5073137;28;20036;-70
2023/01/08 04:22:38;;;;;;;6.22;2.50;;;8.90;99.90;;;;;;5071603;28;20497;-70
2023/01/08 04:25:04;;;;;;;5.78;2.60;;;8.90;99.90;;;;;;5071465;28;20044;-70
2023/01/08 04:27:30;;;;;;;3.92;2.20;;;8.90;99.90;;;;;;5072737;28;20131;-70
2023/01/08 04:29:55;;;;;;;4.75;2.47;;;8.90;99.90;;;;;;5071484;28;20094;-70
2023/01/08 04:32:21;;;;;;;4.32;1.85;;;9.00;99.90;;;;;;5071744;28;20089;-70
2023/01/08 04:34:46;;;;;;;7.70;2.67;;;8.90;99.90;;;;;;5071431;28;20517;-70
2023/01/08 04:37:12;;;;;;;5.13;2.40;;;8.90;99.90;;;;;;5071386;28;20041;-70
2023/01/08 04:39:37;;;;;;;6.80;2.20;;;8.90;99.90;;;;;;5071649;28;20044;-70
2023/01/08 04:42:03;;;;;;;4.60;1.98;;;8.90;99.90;;;;;;5071390;28;20052;-70
2023/01/08 04:44:29;;;;;;;4.80;1.60;;;8.90;99.90;;;;;;5071593;28;20036;-70
2023/01/08 04:46:54;;;;;;;7.72;1.98;;;8.90;99.90;;;;;;5071235;28;20436;-70
2023/01/08 04:49:20;;;;;;;4.63;1.90;;;8.90;99.90;;;;;;5071471;28;20040;-70
2023/01/08 04:51:45;;;;;;;4.80;1.45;;;8.90;99.90;;;;;;5071563;28;20405;-70
2023/01/08 04:54:11;;;;;;;3.50;1.30;;;8.90;99.90;;;;;;5072507;28;20453;-70
2023/01/08 04:56:37;;;;;;;5.28;1.38;;;8.90;99.90;;;;;;5072536;28;20037;-70
2023/01/08 04:59:02;;;;;;;6.10;1.83;;;8.90;99.90;;;;;;5071161;28;20409;-70
2023/01/08 05:01:28;;;;;;;3.88;1.30;;;8.90;99.90;;;;;;5071206;28;20040;-70
2023/01/08 05:03:57;;;;;;;8.35;1.63;;;8.90;99.90;;;;;;5071418;28;20033;-70
2023/01/08 05:06:23;;;;;;;4.28;1.80;;;8.90;99.90;;;;;;5071058;28;20115;-70
2023/01/08 05:08:49;;;;;;;5.03;1.40;;;8.80;99.90;;;;;;5073822;28;20075;-70
2023/01/08 05:11:14;;;;;;;2.75;1.42;;;8.80;99.90;;;;;;5074716;28;20095;-70
2023/01/08 05:13:40;;;;;;;5.80;1.83;;;8.80;99.90;;;;;;5058211;28;20485;-70
2023/01/08 05:16:06;;;;;;;4.70;2.30;;;8.80;99.90;;;;;;5074655;28;20048;-70
2023/01/08 05:18:31;;;;;;;4.70;1.35;;;8.80;99.90;;;;;;5074479;28;20048;-70
2023/01/08 05:21:01;;;;;;;6.57;1.50;;;8.70;99.90;;;;;;5074801;28;20044;-70
2023/01/08 05:23:28;;;;;;;4.25;1.40;;;8.80;99.90;;;;;;5074773;28;20040;-70
2023/01/08 05:26:02;;;;;;;4.22;1.40;;;8.70;99.90;;;;;;5074342;28;20043;-70
2023/01/08 05:28:29;;;;;;;5.85;1.40;;;8.70;99.90;;;;;;5074592;28;20040;-70
2023/01/08 05:30:55;;;;;;;5.63;1.70;;;8.70;99.90;;;;;;5074332;28;20051;-70
2023/01/08 05:33:21;;;;;;;4.05;1.40;;;8.70;99.90;;;;;;5074265;28;20041;-70
2023/01/08 05:35:46;;;;;;;4.72;1.30;;;8.70;99.90;;;;;;5074208;28;20086;-70
2023/01/08 05:38:12;;;;;;;5.88;1.70;;;8.70;99.90;;;;;;5074374;28;20044;-70
2023/01/08 05:40:37;;;;;;;5.47;1.73;;;8.70;99.90;;;;;;5075464;28;20037;-70
2023/01/08 05:43:04;;;;;;;3.92;1.85;;;8.70;99.90;;;;;;5074385;28;20089;-70
2023/01/08 05:45:30;;;;;;;4.10;1.50;;;8.60;99.90;;;;;;5074229;28;20040;-70
2023/01/08 05:47:56;;;;;;;5.97;1.70;;;8.60;99.90;;;;;;5075480;28;20569;-70
2023/01/08 05:50:22;;;;;;;7.93;1.70;;;8.60;99.90;;;;;;5075110;28;20116;-70
2023/01/08 05:52:47;;;;;;;5.53;1.90;;;8.60;99.90;;;;;;5073935;28;20077;-70
2023/01/08 05:55:13;;;;;;;7.60;2.90;;;8.60;99.90;;;;;;5074159;28;20141;-70
2023/01/08 05:57:39;;;;;;;7.55;2.58;;;8.60;99.90;;;;;;5075068;28;20497;-70
2023/01/08 06:00:07;;;;;;;7.93;2.55;;;8.60;99.90;;;;;;5075307;28;20040;-70
2023/01/08 06:02:32;;;;;;;5.35;2.38;;;8.60;99.90;;;;;;5073717;28;20409;-70
2023/01/08 06:04:58;;;;;;;5.22;2.17;;;8.60;99.90;;;;;;5073921;28;20045;-70
2023/01/08 06:07:24;;;;;;;4.72;2.15;;;8.60;99.90;;;;;;5073594;28;20040;-70
2023/01/08 06:09:49;;;;;;;6.05;2.78;;;8.50;99.90;;;;;;5073876;28;20037;-70
2023/01/08 06:12:15;;;;;;;7.45;2.72;;;8.50;99.90;;;;;;5073584;28;20509;-70
2023/01/08 06:14:40;;;;;;;4.88;2.40;;;8.50;99.90;;;;;;5073539;28;20040;-69
2023/01/08 06:17:08;;;;;;;6.88;2.70;;;8.50;99.90;;;;;;5057390;28;20048;-70
2023/01/08 06:19:34;;;;;;;7.35;2.40;;;8.50;99.90;;;;;;5073423;28;20102;-70
2023/01/08 06:21:59;;;;;;;5.55;2.42;;;8.50;99.90;;;;;;5073630;28;20045;-70
2023/01/08 06:24:25;;;;;;;6.60;2.38;;;8.50;99.90;;;;;;5074740;28;20079;-70
2023/01/08 06:26:51;;;;;;;8.07;2.42;;;8.50;99.90;;;;;;5073143;28;20048;-70
2023/01/08 06:29:16;;;;;;;6.63;2.05;;;8.50;99.90;;;;;;5073248;28;20040;-70
2023/01/08 06:31:42;;;;;;;6.40;2.20;;;8.40;99.90;;;;;;5073414;28;20076;-70
2023/01/08 06:34:07;;;;;;;7.50;2.13;;;8.40;99.90;;;;;;5073083;28;20040;-70
2023/01/08 06:36:33;;;;;;;7.13;2.13;;;8.40;99.90;;;;;;5073076;28;20548;-70
2023/01/08 06:38:58;;;;;;;6.20;2.03;;;8.40;99.90;;;;;;5072947;28;20052;-70
2023/01/08 06:41:24;;;;;;;6.53;2.50;;;8.30;99.90;;;;;;5074422;28;20143;-70
2023/01/08 06:43:50;;;;;;;4.90;1.88;;;8.30;99.90;;;;;;5073160;28;20056;-70
2023/01/08 06:46:15;;;;;;;6.97;2.40;;;8.30;99.90;;;;;;5056154;28;20420;-70
2023/01/08 06:48:41;;;;;;;6.60;1.83;;;8.30;99.90;;;;;;5072632;28;20043;-70
2023/01/08 06:51:06;;;;;;;6.30;1.88;;;8.30;99.90;;;;;;5073100;28;20040;-70
2023/01/08 06:53:32;;;;;;;9.95;1.77;;;8.20;99.90;;;;;;5072714;28;20515;-70
2023/01/08 06:55:58;;;;;;;5.50;1.52;;;8.20;99.90;;;;;;5072963;28;20040;-70
2023/01/08 06:58:25;;;;;;;5.38;1.70;;;8.20;99.90;;;;;;5072561;28;20459;-70
2023/01/08 07:00:51;;;;;;;4.22;1.48;;;8.20;99.90;;;;;;5072598;28;20413;-70
2023/01/08 07:03:16;;;;;;;6.93;1.67;;;8.20;99.90;;;;;;5072582;28;20044;-70
2023/01/08 07:05:42;;;;;;;8.82;1.70;;;8.20;99.90;;;;;;5072463;28;20044;-70
2023/01/08 07:08:13;;;;;;;5.40;1.50;;;8.10;99.90;;;;;;5072411;28;20040;-70
2023/01/08 07:10:39;;;;;;;7.35;2.22;;;8.10;99.90;;;;;;5072427;28;20443;-70
2023/01/08 07:13:06;;;;;;;5.70;1.65;;;8.10;99.90;;;;;;5072585;28;20438;-70
2023/01/08 07:15:32;;;;;;;9.43;1.85;;;8.10;99.90;;;;;;5072307;28;20049;-70
2023/01/08 07:17:58;;;;;;;4.95;1.55;;;8.00;99.90;;;;;;5072233;28;20113;-70
2023/01/08 07:20:23;;;;;;;10.40;2.55;;;8.00;99.90;;;;;;5072289;28;20051;-70
2023/01/08 07:22:49;;;;;;;5.80;1.58;;;8.00;99.90;;;;;;5072257;28;20095;-70
2023/01/08 07:25:14;;;;;;;5.88;1.55;;;7.90;99.90;;;;;;5072134;28;20051;-70
2023/01/08 07:27:40;;;;;;;7.60;1.77;;;7.90;99.90;;;;;;5072378;28;20037;-70
2023/01/08 07:30:06;;;;;;;7.78;1.77;;;7.90;99.90;;;;;;5071561;28;20390;-70
2023/01/08 07:32:32;;;;;;;11.68;1.75;;;7.90;99.90;;;;;;5072113;28;20424;-70
2023/01/08 07:34:58;;;;;;;8.95;1.95;;;7.90;99.90;;;;;;5072330;28;20044;-70
2023/01/08 07:37:24;;;;;;;11.68;2.53;;;7.90;99.90;;;;;;5071969;28;20050;-70
2023/01/08 07:39:51;;;;;;;10.38;2.10;;;8.00;99.90;;;;;;5071994;28;20040;-70
2023/01/08 07:42:17;;;;;;;11.05;1.77;;;7.90;99.90;;;;;;5072219;28;20056;-70
2023/01/08 07:44:43;;;;;;;7.78;1.88;;;8.00;99.90;;;;;;5071925;28;20541;-70
2023/01/08 07:47:08;;;;;;;5.88;2.05;;;8.00;99.90;;;;;;5071768;28;20124;-70
2023/01/08 07:49:34;;;;;;;10.65;2.15;;;8.00;99.90;;;;;;5071806;28;20036;-70
2023/01/08 07:52:00;;;;;;;8.68;2.17;;;8.00;99.90;;;;;;5071892;28;20048;-70
2023/01/08 07:54:25;;;;;;;7.35;2.30;;;8.00;99.90;;;;;;5071814;28;20178;-70
2023/01/08 07:56:53;;;;;;;7.70;2.20;;;7.90;99.90;;;;;;5071714;28;20046;-70
2023/01/08 07:59:19;;;;;;;9.50;2.25;;;7.90;99.90;;;;;;5071759;28;20094;-70
2023/01/08 08:01:44;;;;;;;6.85;1.88;;;7.90;99.90;;;;;;5071785;28;20036;-70
2023/01/08 08:04:11;;;;;;;9.95;2.67;;;7.80;99.90;;;;;;5071992;28;20133;-70
2023/01/08 08:06:37;;;;;;;7.38;2.03;;;7.80;99.90;;;;;;5071636;28;20051;-71
2023/01/08 08:09:02;;;;;;;9.27;2.40;;;7.80;99.90;;;;;;5072025;28;20036;-70
2023/01/08 08:11:28;;;;;;;8.77;2.20;;;7.80;99.90;;;;;;5071688;28;20040;-70
2023/01/08 08:13:54;;;;;;;11.10;2.33;;;7.70;99.90;;;;;;5071669;28;20064;-70
2023/01/08 08:16:19;;;;;;;8.95;1.77;;;7.70;99.90;;;;;;5071893;28;20072;-70
2023/01/08 08:18:45;;;;;;;10.60;2.30;;;7.70;99.90;;;;;;5071574;28;20400;-70
2023/01/08 08:21:10;;;;;;;8.20;2.10;;;7.70;99.90;;;;;;5071545;28;20097;-70
2023/01/08 08:23:36;;;;;;;9.80;2.05;;;7.60;99.90;;;;;;5071552;28;20047;-70
2023/01/08 08:26:03;;;;;;;7.70;2.30;;;7.70;99.90;;;;;;5071476;28;20514;-70
2023/01/08 08:28:28;;;;;;;8.30;1.92;;;7.60;99.90;;;;;;5071473;28;20048;-70
2023/01/08 08:30:54;;;;;;;8.18;2.30;;;7.60;99.90;;;;;;5071443;28;20115;-70
2023/01/08 08:33:19;;;;;;;7.88;1.60;;;7.60;99.90;;;;;;5071412;28;20049;-70
2023/01/08 08:35:50;;;;;;;7.82;1.90;;;7.60;99.90;;;;;;5071433;28;20040;-70
2023/01/08 08:38:16;;;;;;;8.50;2.13;;;7.70;99.90;;;;;;5071649;28;20044;-70
2023/01/08 08:40:42;;;;;;;6.80;1.70;;;7.70;99.90;;;;;;5071401;28;20080;-70
2023/01/08 08:43:08;;;;;;;8.25;1.67;;;7.70;99.90;;;;;;5074806;28;20075;-70
2023/01/08 08:45:35;;;;;;;7.55;1.75;;;7.60;99.90;;;;;;5075347;28;20555;-70
2023/01/08 08:48:00;;;;;;;9.00;1.52;;;7.60;99.90;;;;;;5074994;28;20044;-70
2023/01/08 08:50:26;;;;;;;8.38;1.60;;;7.70;99.90;;;;;;5075262;28;20048;-70
2023/01/08 08:52:57;;;;;;;6.60;1.80;;;7.70;99.90;;;;;;5075016;28;20044;-70
2023/01/08 08:55:22;;;;;;;8.07;1.77;;;7.70;99.90;;;;;;5075070;28;20044;-70
2023/01/08 08:57:48;;;;;;;5.93;1.50;;;7.70;99.90;;;;;;5074912;28;20047;-70
2023/01/08 09:00:14;;;;;;;6.88;2.13;;;7.70;99.90;;;;;;5075250;28;20051;-70
2023/01/08 09:02:40;;;;;;;8.02;2.05;;;7.70;99.90;;;;;;5074859;28;20072;-70
2023/01/08 09:05:06;;;;;;;6.68;1.40;;;7.70;99.90;;;;;;5074760;28;20117;-70
2023/01/08 09:07:32;;;;;;;9.45;2.22;;;7.80;99.90;;;;;;5074712;28;20075;-70
2023/01/08 09:09:58;;;;;;;10.43;1.60;;;7.80;99.90;;;;;;5074725;28;20041;-70
2023/01/08 09:12:24;;;;;;;9.30;1.90;;;7.80;99.90;;;;;;5058253;28;20051;-70
2023/01/08 09:14:50;;;;;;;7.00;1.65;;;7.80;99.90;;;;;;5074888;28;20127;-70
2023/01/08 09:17:16;;;;;;;5.75;1.80;;;7.80;99.90;;;;;;5074578;28;20048;-70
2023/01/08 09:19:41;;;;;;;6.65;1.70;;;7.80;99.90;;;;;;5074569;28;20042;-70
2023/01/08 09:22:07;;;;;;;5.47;1.67;;;7.90;99.90;;;;;;5074532;28;20051;-70
2023/01/08 09:24:33;;;;;;;8.35;1.70;;;7.90;99.90;;;;;;5074507;28;20050;-70
2023/01/08 09:26:58;;;;;;;11.18;1.98;;;7.90;99.90;;;;;;5074353;28;20157;-70
2023/01/08 09:29:24;;;;;;;8.00;1.65;;;7.90;99.90;;;;;;5074391;28;20041;-74
2023/01/08 09:31:50;;;;;;;8.43;1.60;;;7.90;99.90;;;;;;5074352;28;20072;-69
2023/01/08 09:34:16;;;;;;;5.45;1.70;;;8.00;99.90;;;;;;5074579;28;20033;-70
2023/01/08 09:36:41;;;;;;;5.60;1.20;;;8.00;99.90;;;;;;5074263;28;20499;-70
2023/01/08 09:39:08;;;;;;;9.85;1.90;;;8.00;99.90;;;;;;5074136;28;20119;-70
2023/01/08 09:41:37;;;;;;;7.70;1.63;;;8.00;99.90;;;;;;5074193;28;20497;-70
2023/01/08 09:44:05;;;;;;;7.25;1.70;;;8.00;99.90;;;;;;5074360;28;20059;-70
2023/01/08 09:46:31;;;;;;;8.65;1.83;;;8.10;99.90;;;;;;5073989;28;20539;-70
2023/01/08 09:49:05;;;;;;;10.20;1.75;;;8.10;99.90;;;;;;5057178;28;20119;-70
2023/01/08 09:51:34;;;;;;;9.85;1.63;;;8.20;99.90;;;;;;5074022;28;20049;-70
2023/01/08 09:54:00;;;;;;;8.60;1.55;;;8.10;99.90;;;;;;5073614;28;20037;-70
2023/01/08 09:56:27;;;;;;;8.15;1.70;;;8.20;99.90;;;;;;5073916;28;20040;-70
2023/01/08 09:58:55;;;;;;;8.55;1.73;;;8.20;99.90;;;;;;5073797;28;20055;-70
2023/01/08 10:01:27;;;;;;;9.63;1.83;;;8.20;99.90;;;;;;5073794;28;20125;-70
2023/01/08 10:04:04;;;;;;;6.68;1.33;;;8.30;99.90;;;;;;5074031;28;20044;-70
2023/01/08 10:06:30;;;;;;;6.90;1.60;;;8.30;99.90;;;;;;5073619;28;20044;-70
2023/01/08 10:08:56;;;;;;;5.70;1.40;;;8.30;99.90;;;;;;5073589;28;20039;-70
2023/01/08 10:11:25;;;;;;;11.15;1.75;;;8.30;99.90;;;;;;5073623;28;20072;-70
2023/01/08 10:13:53;;;;;;;11.05;1.73;;;8.30;99.90;;;;;;5073540;28;20055;-70
2023/01/08 10:16:40;;;;;;;13.70;2.42;;;8.40;99.90;;;;;;5073505;28;20080;-70
2023/01/08 10:19:08;;;;;;;10.82;2.03;;;8.40;99.90;;;;;;5073649;28;20090;-70
2023/01/08 10:21:39;;;;;;;12.40;1.95;;;8.50;99.90;;;;;;5073671;28;20036;-70
2023/01/08 10:24:06;;;;;;;15.57;2.53;;;8.50;99.90;;;;;;5073350;28;20051;-70
2023/01/08 10:26:37;;;;;;;9.63;1.70;;;8.50;99.90;;;;;;5073123;28;20405;-70
2023/01/08 10:29:16;;;;;;;10.35;1.70;;;8.50;99.90;;;;;;5073375;28;20040;-70
2023/01/08 10:31:46;;;;;;;14.98;2.63;;;8.50;99.90;;;;;;5073226;28;20039;-70
2023/01/08 10:34:22;;;;;;;10.68;1.70;;;8.50;99.90;;;;;;5073101;28;20555;-70
2023/01/08 10:36:47;;;;;;;15.40;2.22;;;8.60;99.90;;;;;;5073391;28;20106;-70
2023/01/08 10:39:22;;;;;;;8.68;1.77;;;8.60;99.90;;;;;;5074263;28;20501;-70
2023/01/08 10:41:49;;;;;;;11.48;2.17;;;8.60;99.90;;;;;;5072997;28;20120;-70
2023/01/08 10:44:17;;;;;;;9.82;1.95;;;8.60;99.90;;;;;;5074142;28;20436;-70
2023/01/08 10:46:47;;;;;;;11.68;1.85;;;8.60;99.90;;;;;;5072815;28;20116;-70
2023/01/08 10:49:19;;;;;;;13.65;2.35;;;8.70;99.90;;;;;;5072684;28;20055;-70
2023/01/08 10:51:53;;;;;;;10.88;1.98;;;8.70;99.90;;;;;;5056497;28;20074;-70
2023/01/08 10:54:33;;;;;;;13.55;3.08;;;8.70;99.90;;;;;;5072804;28;20474;-70
2023/01/08 10:56:59;;;;;;;10.25;1.77;;;8.80;99.90;;;;;;5074462;28;20054;-70
2023/01/08 10:59:25;;;;;;;9.52;1.83;;;8.80;99.90;;;;;;5072650;28;20048;-70
2023/01/08 11:01:56;;;;;;;10.02;2.03;;;8.80;99.90;;;;;;5072634;28;20080;-70
2023/01/08 11:04:31;;;;;;;13.95;2.20;;;8.90;99.90;;;;;;5072248;28;20048;-70
2023/01/08 11:07:01;;;;;;;11.32;2.03;;;8.90;99.90;;;;;;5072018;28;20435;-70
2023/01/08 11:09:38;;;;;;;10.15;2.03;;;8.90;99.90;;;;;;5072732;28;20076;-70
2023/01/08 11:12:22;;;;;;;11.68;2.10;;;9.00;99.90;;;;;;5072396;28;20504;-70
2023/01/08 11:14:47;;;;;;;;;;;9.10;99.90;;;;;;5072864;28;20530;-70
2023/01/08 11:17:13;;;;;;;9.63;2.28;;;9.10;99.90;;;;;;5072286;28;19917;-70
2023/01/08 11:19:39;;;;;;;10.05;2.08;;;9.20;99.90;;;;;;5072336;28;20088;-70
2023/01/08 11:22:18;;;;;;;13.63;2.10;;;9.30;99.90;;;;;;5072268;28;20078;-70
2023/01/08 11:24:45;;;;;;;9.73;1.80;;;9.40;99.90;;;;;;5072512;28;20089;-71
2023/01/08 11:27:21;;;;;;;9.70;1.80;;;9.40;99.90;;;;;;5072030;28;20127;-70
2023/01/08 11:30:13;;;;;;;12.13;2.42;;;9.50;99.90;;;;;;5072464;28;20048;-70
2023/01/08 11:32:45;;;;;;;17.05;2.15;;;9.60;99.90;;;;;;5072426;28;20052;-70
2023/01/08 11:35:31;;;;;;;10.55;1.80;;;9.80;99.90;;;;;;5072074;28;20041;-70
2023/01/08 11:38:01;;;;;;;11.32;2.47;;;10.40;99.90;;;;;;5072401;28;20043;-70
2023/01/08 11:40:48;;;;;;;11.38;2.00;;;10.40;99.90;;;;;;5072032;28;20033;-70
2023/01/08 11:43:38;;;;;;;11.55;2.70;;;10.10;99.90;;;;;;5073223;28;20124;-70
2023/01/08 11:46:30;;;;;;;11.23;2.80;;;10.00;99.90;;;;;;5072031;28;20515;-70
2023/01/08 11:49:14;;;;;;;12.40;2.45;;;10.10;99.90;;;;;;5071708;28;20047;-70
2023/01/08 11:52:07;;;;;;;12.27;2.33;;;10.00;99.90;;;;;;5071889;28;20119;-70
2023/01/08 11:55:12;;;;;;;13.02;2.70;;;9.80;99.90;;;;;;5073430;28;20397;-73
2023/01/08 11:57:51;;;;;;;12.40;2.22;;;9.80;99.90;;;;;;5060102;28;20044;-74
2023/01/08 12:00:35;;;;;;;14.52;2.80;;;9.90;99.90;;;;;;5072095;28;20063;-73
2023/01/08 12:03:16;;;;;;;16.15;2.70;;;9.70;99.90;;;;;;5071952;28;20547;-73
2023/01/08 12:05:48;;;;;;;11.30;2.30;;;9.50;99.90;;;;;;5072511;28;20041;-73
2023/01/08 12:08:51;;;;;;;10.10;2.13;;;9.40;99.90;;;;;;5071675;28;20055;-73
2023/01/08 12:11:50;;;;;;;11.77;2.47;;;9.60;99.90;;;;;;5071703;28;20036;-73
2023/01/08 12:14:34;;;;;;;10.50;2.35;;;9.70;99.90;;;;;;5071701;28;20089;-73
2023/01/08 12:17:35;;;;;;;9.50;2.00;;;10.10;99.90;;;;;;5056877;28;20174;-73
2023/01/08 12:20:24;;;;;;;14.18;2.58;;;10.60;99.90;;;;;;5075689;28;20059;-73
2023/01/08 12:23:13;;;;;;;12.90;2.10;;;11.10;99.90;;;;;;5075652;28;20043;-73
2023/01/08 12:25:46;;;;;;;7.97;2.55;;;11.20;99.90;;;;;;5075851;28;20119;-73
2023/01/08 12:28:36;;;;;;;16.58;2.90;;;10.70;99.90;;;;;;5075850;28;20036;-73
2023/01/08 12:31:21;;;;;;;9.88;2.30;;;10.40;99.90;;;;;;5075557;28;20051;-73
2023/01/08 12:34:04;;;;;;;12.77;2.25;;;10.00;99.90;;;;;;5075401;28;20033;-73
2023/01/08 12:36:42;;;;;;;11.13;2.42;;;10.00;99.90;;;;;;5075399;28;20040;-73
2023/01/08 12:39:21;;;;;;;9.32;1.90;;;10.60;99.90;;;;;;5075371;28;20044;-73
2023/01/08 12:41:48;;;;;;;8.80;2.22;;;10.70;99.90;;;;;;5058657;28;20041;-73
2023/01/08 12:44:25;;;;;;;15.20;2.30;;;10.60;99.90;;;;;;5075798;28;20033;-74
2023/01/08 12:46:53;;;;;;;9.02;2.22;;;11.50;99.90;;;;;;5075124;28;20559;-74
2023/01/08 12:49:39;;;;;;;12.70;1.95;;;12.00;99.90;;;;;;5075047;28;20047;-73
2023/01/08 12:52:35;;;;;;;10.18;2.13;;;11.90;99.90;;;;;;5075378;28;20119;-73
2023/01/08 12:55:25;;;;;;;10.30;2.15;;;12.10;99.90;;;;;;5070685;28;20485;-73
2023/01/08 12:58:01;;;;;;;10.43;2.10;;;11.60;99.90;;;;;;5074977;28;20045;-74
2023/01/08 13:00:40;;;;;;;9.88;2.38;;;12.00;99.90;;;;;;5074972;28;20386;-73
2023/01/08 13:03:14;;;;;;;12.68;2.03;;;12.40;99.90;;;;;;5074917;28;20040;-73
2023/01/08 13:05:42;;;;;;;11.73;2.35;;;12.70;99.90;;;;;;5075055;28;20040;-73
2023/01/08 13:08:24;;;;;;;9.52;2.17;;;12.70;99.90;;;;;;5074770;28;20040;-73